createdAt,value
2019-01-29T00:00:01.030Z,0
2019-01-29T00:01:09.078Z,0
2019-01-29T00:02:17.125Z,0
2019-01-29T00:03:25.193Z,0
2019-01-29T00:04:33.234Z,0
2019-01-29T00:05:41.302Z,0
2019-01-29T00:06:49.362Z,0
2019-01-29T00:07:57.413Z,0
2019-01-29T00:09:05.470Z,0
2019-01-29T00:10:13.521Z,0
2019-01-29T00:11:21.577Z,0
2019-01-29T00:12:29.641Z,0
2019-01-29T00:13:37.686Z,0
2019-01-29T00:14:45.742Z,0
2019-01-29T00:15:53.789Z,0
2019-01-29T00:17:01.849Z,0
2019-01-29T00:18:09.926Z,0
2019-01-29T00:19:17.961Z,0
2019-01-29T00:20:26.004Z,0
2019-01-29T00:21:34.039Z,0
2019-01-29T00:22:42.136Z,0
2019-01-29T00:23:50.183Z,0
2019-01-29T00:24:58.242Z,0
2019-01-29T00:26:06.283Z,0
2019-01-29T00:27:14.357Z,0
2019-01-29T00:28:22.405Z,0
2019-01-29T00:29:30.568Z,0
2019-01-29T00:30:38.513Z,0
2019-01-29T00:31:46.572Z,0
2019-01-29T00:32:54.605Z,0
2019-01-29T00:34:02.682Z,0
2019-01-29T00:35:10.777Z,0
2019-01-29T00:36:18.789Z,0
2019-01-29T00:37:26.848Z,0
2019-01-29T00:38:34.912Z,0
2019-01-29T00:39:42.956Z,0
2019-01-29T00:40:51.025Z,0
2019-01-29T00:41:59.069Z,0
2019-01-29T00:43:07.115Z,0
2019-01-29T00:44:15.170Z,0
2019-01-29T00:45:23.230Z,0
2019-01-29T00:46:31.289Z,0
2019-01-29T00:47:39.356Z,0
2019-01-29T00:48:47.397Z,0
2019-01-29T00:49:55.469Z,0
2019-01-29T00:51:03.523Z,0
2019-01-29T00:52:11.554Z,0
2019-01-29T00:53:19.629Z,0
2019-01-29T00:54:27.675Z,0
2019-01-29T00:55:35.758Z,0
2019-01-29T00:56:43.782Z,0
2019-01-29T00:57:51.845Z,0
2019-01-29T00:58:59.902Z,0
2019-01-29T01:00:07.948Z,0
2019-01-29T01:01:16.016Z,0
2019-01-29T01:02:24.047Z,0
2019-01-29T01:03:32.127Z,0
2019-01-29T01:04:40.189Z,0
2019-01-29T01:05:48.233Z,0
2019-01-29T01:06:56.294Z,0
2019-01-29T01:08:04.328Z,0
2019-01-29T01:09:12.413Z,0
2019-01-29T01:10:20.456Z,0
2019-01-29T01:11:28.512Z,0
2019-01-29T01:12:36.576Z,0
2019-01-29T01:13:44.613Z,0
2019-01-29T01:14:52.701Z,0
2019-01-29T01:16:00.728Z,0
2019-01-29T01:17:08.786Z,0
2019-01-29T01:18:16.846Z,0
2019-01-29T01:19:24.894Z,0
2019-01-29T01:20:32.970Z,0
2019-01-29T01:21:41.013Z,0
2019-01-29T01:22:50.918Z,0
2019-01-29T01:23:57.100Z,0
2019-01-29T01:25:05.172Z,0
2019-01-29T01:26:13.225Z,0
2019-01-29T01:27:21.278Z,0
2019-01-29T01:28:29.332Z,0
2019-01-29T01:29:37.393Z,0
2019-01-29T01:30:45.451Z,0
2019-01-29T01:31:53.499Z,0
2019-01-29T01:33:01.592Z,0
2019-01-29T01:34:09.623Z,0
2019-01-29T01:35:17.662Z,0
2019-01-29T01:36:25.736Z,0
2019-01-29T01:37:33.772Z,0
2019-01-29T01:38:41.834Z,0
2019-01-29T01:39:49.888Z,0
2019-01-29T01:40:57.933Z,0
2019-01-29T01:42:05.993Z,0
2019-01-29T01:43:14.020Z,0
2019-01-29T01:44:22.122Z,0
2019-01-29T01:45:30.147Z,0
2019-01-29T01:46:38.208Z,0
2019-01-29T01:47:46.269Z,0
2019-01-29T01:48:54.300Z,0
2019-01-29T01:50:02.586Z,0
2019-01-29T01:51:45.219Z,0
2019-01-29T01:54:09.405Z,0
2019-01-29T01:55:17.460Z,0
2019-01-29T01:56:25.509Z,0
2019-01-29T01:57:33.549Z,0
2019-01-29T01:58:41.597Z,0
2019-01-29T01:59:49.681Z,0
2019-01-29T02:00:57.723Z,0
2019-01-29T02:02:05.762Z,0
2019-01-29T02:03:13.813Z,0
2019-01-29T02:04:21.898Z,0
2019-01-29T02:05:29.939Z,0
2019-01-29T02:06:38.004Z,0
2019-01-29T02:07:46.031Z,0
2019-01-29T02:08:54.073Z,0
2019-01-29T02:10:02.161Z,0
2019-01-29T02:11:10.208Z,0
2019-01-29T02:12:18.255Z,0
2019-01-29T02:13:26.304Z,0
2019-01-29T02:14:34.329Z,0
2019-01-29T02:15:42.408Z,0
2019-01-29T02:16:50.461Z,0
2019-01-29T02:17:58.522Z,0
2019-01-29T02:19:06.599Z,0
2019-01-29T02:20:14.608Z,0
2019-01-29T02:21:22.690Z,0
2019-01-29T02:22:30.733Z,0
2019-01-29T02:23:38.790Z,0
2019-01-29T02:24:46.837Z,0
2019-01-29T02:25:54.893Z,0
2019-01-29T02:27:02.942Z,0
2019-01-29T02:28:11.018Z,0
2019-01-29T02:29:19.074Z,0
2019-01-29T02:30:27.114Z,0
2019-01-29T02:31:35.225Z,0
2019-01-29T02:32:43.314Z,0
2019-01-29T02:33:51.275Z,0
2019-01-29T02:34:59.325Z,0
2019-01-29T02:36:07.381Z,0
2019-01-29T02:37:15.443Z,0
2019-01-29T02:38:23.496Z,0
2019-01-29T02:39:31.560Z,0
2019-01-29T02:40:39.604Z,0
2019-01-29T02:41:47.668Z,0
2019-01-29T02:42:55.720Z,0
2019-01-29T02:44:03.748Z,0
2019-01-29T02:45:11.822Z,0
2019-01-29T02:46:19.870Z,0
2019-01-29T02:47:27.925Z,0
2019-01-29T02:48:35.976Z,0
2019-01-29T02:49:44.003Z,0
2019-01-29T02:50:52.096Z,0
2019-01-29T02:52:00.137Z,0
2019-01-29T02:53:17.732Z,0
2019-01-29T02:54:16.240Z,0
2019-01-29T02:55:24.278Z,0
2019-01-29T02:56:32.364Z,0
2019-01-29T02:57:40.432Z,0
2019-01-29T02:58:48.469Z,0
2019-01-29T02:59:56.523Z,0
2019-01-29T03:01:04.552Z,0
2019-01-29T03:02:12.640Z,0
2019-01-29T03:03:20.715Z,0
2019-01-29T03:04:28.750Z,0
2019-01-29T03:05:36.828Z,0
2019-01-29T03:06:44.846Z,0
2019-01-29T03:07:52.906Z,0
2019-01-29T03:09:00.961Z,0
2019-01-29T03:10:09.007Z,0
2019-01-29T03:11:17.058Z,0
2019-01-29T03:12:25.119Z,0
2019-01-29T03:13:33.180Z,0
2019-01-29T03:14:41.233Z,0
2019-01-29T03:15:49.279Z,0
2019-01-29T03:16:57.345Z,0
2019-01-29T03:18:05.405Z,0
2019-01-29T03:19:13.446Z,0
2019-01-29T03:20:21.508Z,0
2019-01-29T03:21:31.530Z,0
2019-01-29T03:22:37.615Z,0
2019-01-29T03:23:45.682Z,0
2019-01-29T03:24:53.708Z,0
2019-01-29T03:26:01.776Z,0
2019-01-29T03:27:09.833Z,0
2019-01-29T03:28:17.893Z,0
2019-01-29T03:29:25.937Z,0
2019-01-29T03:30:33.950Z,0
2019-01-29T03:31:42.049Z,0
2019-01-29T03:32:50.132Z,0
2019-01-29T03:33:58.171Z,0
2019-01-29T03:35:06.226Z,0
2019-01-29T03:36:14.285Z,0
2019-01-29T03:37:22.323Z,0
2019-01-29T03:38:30.381Z,0
2019-01-29T03:39:38.444Z,0
2019-01-29T03:40:46.488Z,0
2019-01-29T03:41:54.518Z,0
2019-01-29T03:43:02.588Z,0
2019-01-29T03:44:10.642Z,0
2019-01-29T03:45:18.704Z,0
2019-01-29T03:46:26.752Z,0
2019-01-29T03:47:34.797Z,0
2019-01-29T03:48:42.864Z,0
2019-01-29T03:49:50.918Z,0
2019-01-29T03:50:58.969Z,0
2019-01-29T03:52:07.032Z,0
2019-01-29T03:53:15.082Z,0
2019-01-29T03:54:23.149Z,0
2019-01-29T03:55:31.199Z,0
2019-01-29T03:56:39.291Z,0
2019-01-29T03:57:47.312Z,0
2019-01-29T03:58:55.362Z,0
2019-01-29T04:00:03.453Z,0
2019-01-29T04:01:11.468Z,0
2019-01-29T04:02:19.510Z,0
2019-01-29T04:03:27.566Z,0
2019-01-29T04:04:35.633Z,0
2019-01-29T04:05:43.676Z,0
2019-01-29T04:06:51.753Z,0
2019-01-29T04:07:59.803Z,0
2019-01-29T04:09:07.848Z,0
2019-01-29T04:10:16.156Z,0
2019-01-29T04:11:23.931Z,0
2019-01-29T04:12:32.032Z,0
2019-01-29T04:13:40.062Z,0
2019-01-29T04:14:48.122Z,0
2019-01-29T04:15:56.186Z,0
2019-01-29T04:17:04.251Z,0
2019-01-29T04:18:12.296Z,0
2019-01-29T04:19:20.364Z,0
2019-01-29T04:20:28.400Z,0
2019-01-29T04:21:36.459Z,0
2019-01-29T04:22:45.927Z,0
2019-01-29T04:23:52.576Z,0
2019-01-29T04:25:00.632Z,0
2019-01-29T04:26:08.690Z,0
2019-01-29T04:27:16.731Z,0
2019-01-29T04:28:24.759Z,0
2019-01-29T04:29:32.841Z,0
2019-01-29T04:30:40.892Z,0
2019-01-29T04:31:48.954Z,0
2019-01-29T04:32:57.011Z,0
2019-01-29T04:34:05.052Z,0
2019-01-29T04:35:13.117Z,0
2019-01-29T04:36:21.202Z,0
2019-01-29T04:37:29.264Z,0
2019-01-29T04:38:37.276Z,0
2019-01-29T04:39:45.325Z,0
2019-01-29T04:40:53.392Z,0
2019-01-29T04:42:01.454Z,0
2019-01-29T04:43:09.484Z,0
2019-01-29T04:44:17.546Z,0
2019-01-29T04:45:25.596Z,0
2019-01-29T04:46:33.653Z,0
2019-01-29T04:47:41.719Z,0
2019-01-29T04:48:49.771Z,0
2019-01-29T04:49:57.842Z,0
2019-01-29T04:51:05.874Z,0
2019-01-29T04:52:13.921Z,0
2019-01-29T04:53:21.992Z,0
2019-01-29T04:54:30.043Z,0
2019-01-29T04:55:38.108Z,0
2019-01-29T04:56:46.183Z,0
2019-01-29T04:57:54.185Z,0
2019-01-29T04:59:02.265Z,0
2019-01-29T05:00:10.326Z,0
2019-01-29T05:01:18.500Z,0
2019-01-29T05:02:26.437Z,0
2019-01-29T05:03:34.453Z,0
2019-01-29T05:04:42.531Z,0
2019-01-29T05:05:50.595Z,0
2019-01-29T05:06:58.665Z,0
2019-01-29T05:08:06.713Z,0
2019-01-29T05:09:14.746Z,0
2019-01-29T05:10:22.817Z,0
2019-01-29T05:11:30.875Z,0
2019-01-29T05:12:38.921Z,0
2019-01-29T05:13:46.970Z,0
2019-01-29T05:14:55.039Z,0
2019-01-29T05:16:03.084Z,0
2019-01-29T05:17:11.141Z,0
2019-01-29T05:18:19.190Z,0
2019-01-29T05:19:27.245Z,0
2019-01-29T05:20:35.312Z,0
2019-01-29T05:21:43.380Z,0
2019-01-29T05:22:51.417Z,0
2019-01-29T05:24:06.581Z,0
2019-01-29T05:25:07.526Z,0
2019-01-29T05:26:15.589Z,0
2019-01-29T05:27:23.638Z,0
2019-01-29T05:28:31.683Z,0
2019-01-29T05:29:39.736Z,0
2019-01-29T05:30:47.811Z,0
2019-01-29T05:31:55.861Z,0
2019-01-29T05:33:03.903Z,0
2019-01-29T05:34:11.975Z,0
2019-01-29T05:35:20.063Z,0
2019-01-29T05:36:28.086Z,0
2019-01-29T05:37:36.134Z,0
2019-01-29T05:38:44.163Z,0
2019-01-29T05:39:52.235Z,0
2019-01-29T05:41:00.286Z,0
2019-01-29T05:42:08.589Z,0
2019-01-29T05:43:16.405Z,0
2019-01-29T05:44:24.444Z,0
2019-01-29T05:45:32.530Z,0
2019-01-29T05:46:40.580Z,0
2019-01-29T05:47:48.673Z,0
2019-01-29T05:48:56.747Z,0
2019-01-29T05:50:04.747Z,0
2019-01-29T05:51:12.831Z,0
2019-01-29T05:52:20.891Z,0
2019-01-29T05:53:28.941Z,0
2019-01-29T05:54:37.946Z,0
2019-01-29T05:55:45.044Z,0
2019-01-29T05:56:53.106Z,0
2019-01-29T05:58:01.160Z,0
2019-01-29T05:59:09.496Z,0
2019-01-29T06:00:17.366Z,0
2019-01-29T06:01:25.340Z,0
2019-01-29T06:02:33.382Z,0
2019-01-29T06:03:41.445Z,0
2019-01-29T06:04:49.486Z,0
2019-01-29T06:05:57.550Z,0
2019-01-29T06:07:05.597Z,0
2019-01-29T06:08:13.706Z,0
2019-01-29T06:09:21.705Z,0
2019-01-29T06:10:29.770Z,0
2019-01-29T06:11:37.819Z,0
2019-01-29T06:12:45.881Z,0
2019-01-29T06:13:54.027Z,0
2019-01-29T06:15:01.992Z,0
2019-01-29T06:16:10.042Z,0
2019-01-29T06:17:27.153Z,0
2019-01-29T06:18:26.149Z,0
2019-01-29T06:19:34.351Z,0
2019-01-29T06:20:42.261Z,0
2019-01-29T06:21:50.295Z,0
2019-01-29T06:22:58.378Z,0
2019-01-29T06:24:06.443Z,0
2019-01-29T06:25:14.470Z,0
2019-01-29T06:26:22.530Z,0
2019-01-29T06:27:30.581Z,0
2019-01-29T06:28:38.635Z,0
2019-01-29T06:29:46.692Z,0
2019-01-29T06:30:54.740Z,0
2019-01-29T06:32:02.809Z,0
2019-01-29T06:33:10.864Z,0
2019-01-29T06:34:18.919Z,0
2019-01-29T06:35:26.974Z,0
2019-01-29T06:36:35.009Z,0
2019-01-29T06:37:43.079Z,0
2019-01-29T06:38:51.151Z,0
2019-01-29T06:39:59.190Z,0
2019-01-29T06:41:07.266Z,0
2019-01-29T06:42:15.303Z,0
2019-01-29T06:43:23.351Z,0
2019-01-29T06:44:31.415Z,0
2019-01-29T06:45:39.470Z,0
2019-01-29T06:46:47.517Z,0
2019-01-29T06:47:55.579Z,0
2019-01-29T06:49:03.627Z,0
2019-01-29T06:50:11.687Z,0
2019-01-29T06:51:19.757Z,5
2019-01-29T06:52:27.849Z,5
2019-01-29T06:53:35.858Z,5
2019-01-29T06:54:43.890Z,5
2019-01-29T06:55:51.975Z,5
2019-01-29T06:57:00.009Z,5
2019-01-29T06:58:08.115Z,10
2019-01-29T06:59:16.131Z,10
2019-01-29T07:00:24.157Z,10
2019-01-29T07:01:32.243Z,10
2019-01-29T07:02:40.294Z,10
2019-01-29T07:03:48.360Z,10
2019-01-29T07:04:56.416Z,15
2019-01-29T07:06:04.450Z,15
2019-01-29T07:07:12.513Z,15
2019-01-29T07:08:20.584Z,15
2019-01-29T07:09:28.646Z,20
2019-01-29T07:10:36.670Z,20
2019-01-29T07:11:44.730Z,20
2019-01-29T07:12:52.801Z,25
2019-01-29T07:14:00.854Z,25
2019-01-29T07:15:08.901Z,25
2019-01-29T07:16:16.940Z,30
2019-01-29T07:17:25.040Z,30
2019-01-29T07:18:33.066Z,30
2019-01-29T07:19:41.115Z,30
2019-01-29T07:20:49.173Z,30
2019-01-29T07:21:57.229Z,30
2019-01-29T07:23:05.286Z,30
2019-01-29T07:24:13.334Z,30
2019-01-29T07:25:21.399Z,30
2019-01-29T07:26:29.454Z,30
2019-01-29T07:27:37.521Z,30
2019-01-29T07:28:45.564Z,30
2019-01-29T07:29:53.622Z,35
2019-01-29T07:31:01.681Z,35
2019-01-29T07:32:09.736Z,35
2019-01-29T07:33:17.787Z,40
2019-01-29T07:34:25.833Z,40
2019-01-29T07:35:33.883Z,40
2019-01-29T07:36:41.959Z,40
2019-01-29T07:37:50.017Z,45
2019-01-29T07:38:58.042Z,45
2019-01-29T07:40:06.157Z,45
2019-01-29T07:41:14.151Z,50
2019-01-29T07:42:22.230Z,50
2019-01-29T07:43:30.292Z,55
2019-01-29T07:44:38.339Z,55
2019-01-29T07:45:46.398Z,55
2019-01-29T07:46:54.423Z,55
2019-01-29T07:48:02.493Z,55
2019-01-29T07:49:10.561Z,55
2019-01-29T07:50:18.626Z,60
2019-01-29T07:51:26.685Z,60
2019-01-29T07:52:34.715Z,65
2019-01-29T07:53:42.798Z,65
2019-01-29T07:54:51.321Z,65
2019-01-29T07:55:58.916Z,65
2019-01-29T07:57:06.966Z,65
2019-01-29T07:58:15.018Z,65
2019-01-29T07:59:32.278Z,70
2019-01-29T08:00:31.121Z,70
2019-01-29T08:01:39.269Z,75
2019-01-29T08:02:47.265Z,75
2019-01-29T08:03:55.319Z,80
2019-01-29T08:05:03.343Z,85
2019-01-29T08:06:11.405Z,85
2019-01-29T08:07:19.469Z,85
2019-01-29T08:08:27.558Z,85
2019-01-29T08:09:35.569Z,85
2019-01-29T08:10:43.655Z,85
2019-01-29T08:11:51.678Z,85
2019-01-29T08:12:59.798Z,85
2019-01-29T08:14:07.787Z,90
2019-01-29T08:15:15.828Z,95
2019-01-29T08:16:23.900Z,100
2019-01-29T08:17:31.982Z,105
2019-01-29T08:18:40.014Z,110
2019-01-29T08:19:48.075Z,110
2019-01-29T08:20:56.145Z,110
2019-01-29T08:22:04.154Z,110
2019-01-29T08:23:12.219Z,105
2019-01-29T08:24:20.298Z,105
2019-01-29T08:25:28.354Z,100
2019-01-29T08:26:36.422Z,105
2019-01-29T08:27:44.438Z,105
2019-01-29T08:28:52.513Z,105
2019-01-29T08:30:00.585Z,110
2019-01-29T08:31:08.641Z,110
2019-01-29T08:32:16.715Z,110
2019-01-29T08:33:24.725Z,115
2019-01-29T08:34:32.820Z,120
2019-01-29T08:35:41.574Z,125
2019-01-29T08:36:48.918Z,135
2019-01-29T08:37:56.968Z,145
2019-01-29T08:39:05.023Z,150
2019-01-29T08:40:13.083Z,145
2019-01-29T08:41:21.129Z,140
2019-01-29T08:42:29.185Z,135
2019-01-29T08:43:37.247Z,135
2019-01-29T08:44:45.306Z,135
2019-01-29T08:45:54.272Z,135
2019-01-29T08:47:01.435Z,135
2019-01-29T08:48:09.477Z,140
2019-01-29T08:49:17.523Z,140
2019-01-29T08:50:25.589Z,140
2019-01-29T08:51:33.627Z,145
2019-01-29T08:52:41.700Z,145
2019-01-29T08:53:49.793Z,145
2019-01-29T08:54:57.813Z,145
2019-01-29T08:56:05.870Z,150
2019-01-29T08:57:13.915Z,150
2019-01-29T08:58:26.849Z,150
2019-01-29T08:59:30.042Z,150
2019-01-29T09:00:38.103Z,150
2019-01-29T09:01:46.151Z,155
2019-01-29T09:02:54.186Z,155
2019-01-29T09:04:02.270Z,160
2019-01-29T09:05:10.325Z,165
2019-01-29T09:06:18.381Z,165
2019-01-29T09:07:26.440Z,165
2019-01-29T09:08:34.463Z,165
2019-01-29T09:09:42.547Z,165
2019-01-29T09:10:50.604Z,165
2019-01-29T09:11:58.663Z,170
2019-01-29T09:13:06.727Z,180
2019-01-29T09:14:14.771Z,190
2019-01-29T09:15:22.828Z,200
2019-01-29T09:16:30.895Z,205
2019-01-29T09:17:38.947Z,210
2019-01-29T09:18:47.005Z,210
2019-01-29T09:19:55.061Z,210
2019-01-29T09:21:03.122Z,210
2019-01-29T09:22:11.172Z,210
2019-01-29T09:23:19.228Z,205
2019-01-29T09:24:27.298Z,210
2019-01-29T09:25:35.355Z,215
2019-01-29T09:26:43.401Z,220
2019-01-29T09:27:51.438Z,220
2019-01-29T09:28:59.528Z,225
2019-01-29T09:30:07.595Z,235
2019-01-29T09:31:15.756Z,250
2019-01-29T09:32:23.689Z,270
2019-01-29T09:33:31.769Z,290
2019-01-29T09:34:39.819Z,300
2019-01-29T09:35:47.866Z,310
2019-01-29T09:36:55.952Z,320
2019-01-29T09:38:03.944Z,325
2019-01-29T09:39:12.031Z,335
2019-01-29T09:40:20.089Z,345
2019-01-29T09:41:28.155Z,335
2019-01-29T09:42:36.217Z,330
2019-01-29T09:43:44.258Z,325
2019-01-29T09:44:52.324Z,325
2019-01-29T09:46:00.401Z,330
2019-01-29T09:47:08.426Z,315
2019-01-29T09:48:16.507Z,310
2019-01-29T09:49:24.539Z,295
2019-01-29T09:50:32.627Z,280
2019-01-29T09:51:40.671Z,270
2019-01-29T09:52:48.738Z,265
2019-01-29T09:53:56.796Z,270
2019-01-29T09:55:04.850Z,275
2019-01-29T09:56:12.911Z,295
2019-01-29T09:57:20.980Z,310
2019-01-29T09:58:29.027Z,300
2019-01-29T09:59:37.083Z,290
2019-01-29T10:00:45.157Z,270
2019-01-29T10:01:53.200Z,275
2019-01-29T10:03:01.277Z,300
2019-01-29T10:04:09.319Z,295
2019-01-29T10:05:17.368Z,320
2019-01-29T10:06:25.439Z,310
2019-01-29T10:07:33.503Z,285
2019-01-29T10:08:41.571Z,270
2019-01-29T10:09:49.631Z,250
2019-01-29T10:10:57.718Z,225
2019-01-29T10:12:05.777Z,200
2019-01-29T10:13:13.774Z,180
2019-01-29T10:14:21.854Z,175
2019-01-29T10:15:29.922Z,170
2019-01-29T10:16:37.974Z,145
2019-01-29T10:17:46.030Z,140
2019-01-29T10:18:54.074Z,150
2019-01-29T10:20:03.274Z,185
2019-01-29T10:21:10.218Z,265
2019-01-29T10:22:18.311Z,320
2019-01-29T10:23:26.328Z,410
2019-01-29T10:24:34.397Z,470
2019-01-29T10:25:42.470Z,400
2019-01-29T10:26:50.522Z,285
2019-01-29T10:27:58.575Z,250
2019-01-29T10:29:06.653Z,305
2019-01-29T10:30:14.676Z,330
2019-01-29T10:31:24.181Z,340
2019-01-29T10:32:30.812Z,330
2019-01-29T10:33:38.883Z,305
2019-01-29T10:34:46.920Z,335
2019-01-29T10:35:54.985Z,330
2019-01-29T10:37:03.031Z,310
2019-01-29T10:38:11.101Z,335
2019-01-29T10:39:19.202Z,305
2019-01-29T10:40:27.217Z,335
2019-01-29T10:41:35.283Z,335
2019-01-29T10:42:43.388Z,280
2019-01-29T10:43:51.417Z,250
2019-01-29T10:44:59.553Z,240
2019-01-29T10:46:07.520Z,235
2019-01-29T10:47:15.589Z,235
2019-01-29T10:48:23.630Z,180
2019-01-29T10:49:31.710Z,170
2019-01-29T10:50:39.769Z,170
2019-01-29T10:51:47.819Z,175
2019-01-29T10:52:55.882Z,175
2019-01-29T10:54:03.925Z,160
2019-01-29T10:55:12.035Z,160
2019-01-29T10:56:20.074Z,175
2019-01-29T10:57:28.126Z,175
2019-01-29T10:58:36.226Z,165
2019-01-29T10:59:44.234Z,175
2019-01-29T11:00:52.313Z,170
2019-01-29T11:02:00.364Z,175
2019-01-29T11:03:08.464Z,170
2019-01-29T11:04:16.485Z,185
2019-01-29T11:05:24.508Z,180
2019-01-29T11:06:32.607Z,155
2019-01-29T11:07:40.667Z,160
2019-01-29T11:08:48.707Z,160
2019-01-29T11:09:56.779Z,185
2019-01-29T11:11:04.811Z,250
2019-01-29T11:12:12.879Z,280
2019-01-29T11:13:20.948Z,240
2019-01-29T11:14:28.997Z,220
2019-01-29T11:15:37.074Z,185
2019-01-29T11:16:45.125Z,180
2019-01-29T11:17:53.198Z,210
2019-01-29T11:19:03.228Z,190
2019-01-29T11:20:09.293Z,205
2019-01-29T11:21:17.339Z,230
2019-01-29T11:22:25.406Z,190
2019-01-29T11:23:33.485Z,160
2019-01-29T11:24:41.532Z,150
2019-01-29T11:25:55.573Z,140
2019-01-29T11:26:57.635Z,140
2019-01-29T11:28:05.724Z,135
2019-01-29T11:29:13.748Z,130
2019-01-29T11:30:21.831Z,130
2019-01-29T11:31:29.872Z,130
2019-01-29T11:32:37.953Z,145
2019-01-29T11:33:45.985Z,170
2019-01-29T11:34:54.036Z,180
2019-01-29T11:36:02.121Z,185
2019-01-29T11:37:12.071Z,180
2019-01-29T11:38:18.227Z,185
2019-01-29T11:39:26.288Z,185
2019-01-29T11:40:34.352Z,175
2019-01-29T11:41:42.411Z,170
2019-01-29T11:42:50.471Z,170
2019-01-29T11:44:00.415Z,165
2019-01-29T11:45:06.582Z,160
2019-01-29T11:46:14.610Z,145
2019-01-29T11:47:22.688Z,140
2019-01-29T11:48:30.754Z,135
2019-01-29T11:49:38.791Z,135
2019-01-29T11:50:46.861Z,135
2019-01-29T11:51:54.919Z,140
2019-01-29T11:53:02.986Z,140
2019-01-29T11:54:11.045Z,160
2019-01-29T11:55:19.141Z,195
2019-01-29T11:56:27.189Z,180
2019-01-29T11:57:35.212Z,160
2019-01-29T11:58:43.261Z,155
2019-01-29T11:59:51.333Z,155
2019-01-29T12:00:59.397Z,160
2019-01-29T12:02:07.451Z,185
2019-01-29T12:03:15.512Z,185
2019-01-29T12:04:24.217Z,160
2019-01-29T12:05:31.704Z,155
2019-01-29T12:06:39.690Z,160
2019-01-29T12:07:47.723Z,170
2019-01-29T12:08:55.817Z,195
2019-01-29T12:10:03.824Z,195
2019-01-29T12:11:11.917Z,225
2019-01-29T12:12:19.950Z,255
2019-01-29T12:13:28.020Z,280
2019-01-29T12:14:36.081Z,310
2019-01-29T12:15:44.101Z,365
2019-01-29T12:16:52.198Z,410
2019-01-29T12:18:00.261Z,445
2019-01-29T12:19:08.317Z,515
2019-01-29T12:20:16.370Z,520
2019-01-29T12:21:24.403Z,400
2019-01-29T12:22:32.490Z,310
2019-01-29T12:23:40.528Z,295
2019-01-29T12:24:48.594Z,270
2019-01-29T12:25:56.670Z,260
2019-01-29T12:27:04.711Z,260
2019-01-29T12:28:12.782Z,220
2019-01-29T12:29:20.837Z,205
2019-01-29T12:30:28.927Z,200
2019-01-29T12:31:36.953Z,200
2019-01-29T12:32:45.038Z,195
2019-01-29T12:33:53.063Z,185
2019-01-29T12:35:01.127Z,180
2019-01-29T12:36:09.206Z,185
2019-01-29T12:37:17.232Z,220
2019-01-29T12:38:25.298Z,240
2019-01-29T12:39:33.364Z,300
2019-01-29T12:40:41.427Z,320
2019-01-29T12:41:49.487Z,285
2019-01-29T12:42:57.549Z,240
2019-01-29T12:44:05.591Z,200
2019-01-29T12:45:13.665Z,210
2019-01-29T12:46:21.716Z,245
2019-01-29T12:47:29.790Z,300
2019-01-29T12:48:37.850Z,310
2019-01-29T12:49:45.953Z,260
2019-01-29T12:50:53.948Z,225
2019-01-29T12:52:02.019Z,210
2019-01-29T12:53:10.084Z,200
2019-01-29T12:54:18.146Z,200
2019-01-29T12:55:26.199Z,200
2019-01-29T12:56:34.237Z,190
2019-01-29T12:57:42.317Z,180
2019-01-29T12:58:50.385Z,175
2019-01-29T12:59:58.446Z,180
2019-01-29T13:01:06.512Z,175
2019-01-29T13:02:14.536Z,165
2019-01-29T13:03:22.606Z,165
2019-01-29T13:04:30.682Z,155
2019-01-29T13:05:38.722Z,145
2019-01-29T13:06:46.793Z,140
2019-01-29T13:07:54.882Z,135
2019-01-29T13:09:02.912Z,135
2019-01-29T13:10:10.968Z,130
2019-01-29T13:11:19.038Z,130
2019-01-29T13:12:27.084Z,130
2019-01-29T13:13:35.148Z,130
2019-01-29T13:14:43.210Z,130
2019-01-29T13:15:51.268Z,125
2019-01-29T13:16:59.336Z,125
2019-01-29T13:18:07.390Z,125
2019-01-29T13:19:15.426Z,135
2019-01-29T13:20:23.498Z,140
2019-01-29T13:21:31.575Z,150
2019-01-29T13:22:39.651Z,155
2019-01-29T13:23:47.676Z,155
2019-01-29T13:24:55.713Z,165
2019-01-29T13:26:03.783Z,170
2019-01-29T13:27:11.829Z,160
2019-01-29T13:28:19.913Z,165
2019-01-29T13:29:27.963Z,180
2019-01-29T13:30:36.030Z,185
2019-01-29T13:31:44.079Z,175
2019-01-29T13:32:52.130Z,165
2019-01-29T13:34:00.190Z,180
2019-01-29T13:35:08.254Z,195
2019-01-29T13:36:16.312Z,195
2019-01-29T13:37:24.337Z,185
2019-01-29T13:38:32.432Z,160
2019-01-29T13:39:40.533Z,140
2019-01-29T13:40:48.523Z,130
2019-01-29T13:41:56.611Z,135
2019-01-29T13:43:04.633Z,145
2019-01-29T13:44:12.729Z,140
2019-01-29T13:45:20.785Z,140
2019-01-29T13:46:28.826Z,145
2019-01-29T13:47:36.890Z,145
2019-01-29T13:48:44.958Z,140
2019-01-29T13:49:53.006Z,125
2019-01-29T13:51:01.069Z,115
2019-01-29T13:52:09.104Z,115
2019-01-29T13:53:17.176Z,110
2019-01-29T13:54:25.231Z,110
2019-01-29T13:55:33.306Z,110
2019-01-29T13:56:41.361Z,110
2019-01-29T13:57:49.402Z,110
2019-01-29T13:58:57.501Z,110
2019-01-29T14:00:05.522Z,110
2019-01-29T14:01:13.592Z,115
2019-01-29T14:02:21.750Z,110
2019-01-29T14:03:29.697Z,110
2019-01-29T14:04:37.751Z,105
2019-01-29T14:05:45.810Z,105
2019-01-29T14:06:53.860Z,105
2019-01-29T14:08:01.942Z,100
2019-01-29T14:09:09.982Z,100
2019-01-29T14:10:18.047Z,100
2019-01-29T14:11:26.099Z,100
2019-01-29T14:12:34.124Z,100
2019-01-29T14:13:42.218Z,100
2019-01-29T14:14:50.277Z,100
2019-01-29T14:15:58.342Z,100
2019-01-29T14:17:06.417Z,100
2019-01-29T14:18:14.412Z,105
2019-01-29T14:19:22.515Z,105
2019-01-29T14:20:30.569Z,105
2019-01-29T14:21:38.622Z,105
2019-01-29T14:22:46.705Z,105
2019-01-29T14:23:54.711Z,105
2019-01-29T14:25:02.791Z,105
2019-01-29T14:26:12.505Z,105
2019-01-29T14:27:18.906Z,105
2019-01-29T14:28:26.957Z,100
2019-01-29T14:29:35.016Z,105
2019-01-29T14:30:43.077Z,100
2019-01-29T14:31:51.119Z,100
2019-01-29T14:32:59.207Z,100
2019-01-29T14:34:07.247Z,100
2019-01-29T14:35:15.292Z,100
2019-01-29T14:36:23.354Z,95
2019-01-29T14:37:31.418Z,95
2019-01-29T14:38:39.550Z,100
2019-01-29T14:39:47.526Z,100
2019-01-29T14:40:55.590Z,95
2019-01-29T14:42:03.695Z,95
2019-01-29T14:43:11.704Z,95
2019-01-29T14:44:19.800Z,95
2019-01-29T14:45:27.821Z,95
2019-01-29T14:46:35.865Z,95
2019-01-29T14:47:44.027Z,95
2019-01-29T14:48:51.981Z,95
2019-01-29T14:50:00.044Z,95
2019-01-29T14:51:08.087Z,95
2019-01-29T14:52:16.425Z,95
2019-01-29T14:53:24.541Z,90
2019-01-29T14:54:32.302Z,85
2019-01-29T14:55:40.304Z,85
2019-01-29T14:56:56.218Z,85
2019-01-29T14:57:56.423Z,80
2019-01-29T14:59:04.457Z,80
2019-01-29T15:00:12.548Z,80
2019-01-29T15:01:20.607Z,75
2019-01-29T15:02:28.657Z,75
2019-01-29T15:03:36.737Z,75
2019-01-29T15:04:44.748Z,75
2019-01-29T15:05:52.825Z,75
2019-01-29T15:07:00.876Z,70
2019-01-29T15:08:08.942Z,70
2019-01-29T15:09:17.560Z,70
2019-01-29T15:10:25.046Z,65
2019-01-29T15:11:33.088Z,65
2019-01-29T15:12:41.158Z,65
2019-01-29T15:13:49.219Z,65
2019-01-29T15:14:57.276Z,65
2019-01-29T15:16:05.315Z,60
2019-01-29T15:17:13.376Z,60
2019-01-29T15:18:21.433Z,60
2019-01-29T15:19:29.499Z,60
2019-01-29T15:20:37.544Z,60
2019-01-29T15:21:45.588Z,60
2019-01-29T15:22:53.645Z,55
2019-01-29T15:24:01.710Z,55
2019-01-29T15:25:09.753Z,55
2019-01-29T15:26:17.817Z,55
2019-01-29T15:27:25.873Z,50
2019-01-29T15:28:33.916Z,50
2019-01-29T15:29:42.000Z,50
2019-01-29T15:30:50.044Z,50
2019-01-29T15:31:58.082Z,50
2019-01-29T15:33:06.146Z,45
2019-01-29T15:34:14.166Z,45
2019-01-29T15:35:22.247Z,45
2019-01-29T15:36:30.300Z,45
2019-01-29T15:37:38.370Z,45
2019-01-29T15:38:46.419Z,45
2019-01-29T15:39:54.454Z,45
2019-01-29T15:41:02.527Z,40
2019-01-29T15:42:10.600Z,40
2019-01-29T15:43:18.846Z,40
2019-01-29T15:46:41.654Z,40
2019-01-29T15:48:57.753Z,35
2019-01-29T15:50:05.827Z,35
2019-01-29T15:51:13.845Z,35
2019-01-29T15:52:21.925Z,30
2019-01-29T15:53:29.966Z,30
2019-01-29T15:54:38.034Z,30
2019-01-29T15:55:46.082Z,30
2019-01-29T15:56:54.116Z,25
2019-01-29T15:58:02.182Z,25
2019-01-29T15:59:10.248Z,25
2019-01-29T16:00:18.301Z,20
2019-01-29T16:01:26.348Z,20
2019-01-29T16:02:34.378Z,20
2019-01-29T16:03:42.457Z,20
2019-01-29T16:07:38.360Z,15
2019-01-29T16:08:46.387Z,15
2019-01-29T16:09:54.451Z,15
2019-01-29T16:11:02.521Z,10
2019-01-29T16:12:10.575Z,10
2019-01-29T16:13:18.624Z,10
2019-01-29T16:14:26.782Z,10
2019-01-29T16:15:34.730Z,10
2019-01-29T16:16:42.787Z,5
2019-01-29T16:17:50.842Z,5
2019-01-29T16:18:58.888Z,5